sensor_id;sensor_type;location;lat;lon;timestamp;P1;durP1;ratioP1;P2;durP2;ratioP2
72087;SDS011;59961;50.232;8.616;2024-02-28T00:00:51;14.30;;;7.27;;
72087;SDS011;59961;50.232;8.616;2024-02-28T00:03:17;12.97;;;6.43;;
72087;SDS011;59961;50.232;8.616;2024-02-28T00:05:43;15.50;;;7.10;;
72087;SDS011;59961;50.232;8.616;2024-02-28T00:08:09;16.77;;;7.28;;
72087;SDS011;59961;50.232;8.616;2024-02-28T00:10:35;14.07;;;7.13;;
72087;SDS011;59961;50.232;8.616;2024-02-28T00:13:00;15.65;;;6.60;;
72087;SDS011;59961;50.232;8.616;2024-02-28T00:15:25;14.30;;;6.63;;
72087;SDS011;59961;50.232;8.616;2024-02-28T00:17:51;14.90;;;7.00;;
72087;SDS011;59961;50.232;8.616;2024-02-28T00:20:17;14.40;;;6.72;;
72087;SDS011;59961;50.232;8.616;2024-02-28T00:22:42;14.97;;;7.00;;
72087;SDS011;59961;50.232;8.616;2024-02-28T00:25:09;15.93;;;7.82;;
72087;SDS011;59961;50.232;8.616;2024-02-28T00:27:36;14.53;;;6.60;;
72087;SDS011;59961;50.232;8.616;2024-02-28T00:30:01;15.87;;;6.63;;
72087;SDS011;59961;50.232;8.616;2024-02-28T00:32:26;15.23;;;6.25;;
72087;SDS011;59961;50.232;8.616;2024-02-28T00:34:51;13.93;;;5.93;;
72087;SDS011;59961;50.232;8.616;2024-02-28T00:37:16;13.40;;;6.53;;
72087;SDS011;59961;50.232;8.616;2024-02-28T00:39:43;16.20;;;7.07;;
72087;SDS011;59961;50.232;8.616;2024-02-28T00:42:08;11.98;;;5.82;;
72087;SDS011;59961;50.232;8.616;2024-02-28T00:44:33;14.68;;;6.78;;
72087;SDS011;59961;50.232;8.616;2024-02-28T00:46:58;15.70;;;7.03;;
72087;SDS011;59961;50.232;8.616;2024-02-28T00:49:23;15.60;;;7.10;;
72087;SDS011;59961;50.232;8.616;2024-02-28T00:51:49;15.80;;;7.32;;
72087;SDS011;59961;50.232;8.616;2024-02-28T00:54:14;15.97;;;6.60;;
72087;SDS011;59961;50.232;8.616;2024-02-28T00:56:39;14.93;;;7.60;;
72087;SDS011;59961;50.232;8.616;2024-02-28T00:59:04;13.38;;;6.45;;
72087;SDS011;59961;50.232;8.616;2024-02-28T01:01:31;13.43;;;6.47;;
72087;SDS011;59961;50.232;8.616;2024-02-28T01:03:56;14.57;;;7.20;;
72087;SDS011;59961;50.232;8.616;2024-02-28T01:06:21;14.73;;;7.07;;
72087;SDS011;59961;50.232;8.616;2024-02-28T01:08:47;15.55;;;7.78;;
72087;SDS011;59961;50.232;8.616;2024-02-28T01:11:12;15.97;;;7.57;;
72087;SDS011;59961;50.232;8.616;2024-02-28T01:13:37;16.30;;;7.80;;
72087;SDS011;59961;50.232;8.616;2024-02-28T01:16:02;15.67;;;6.60;;
72087;SDS011;59961;50.232;8.616;2024-02-28T01:18:27;15.70;;;6.97;;
72087;SDS011;59961;50.232;8.616;2024-02-28T01:20:55;15.45;;;7.13;;
72087;SDS011;59961;50.232;8.616;2024-02-28T01:23:20;14.73;;;7.10;;
72087;SDS011;59961;50.232;8.616;2024-02-28T01:25:46;16.73;;;7.38;;
72087;SDS011;59961;50.232;8.616;2024-02-28T01:28:11;16.60;;;7.05;;
72087;SDS011;59961;50.232;8.616;2024-02-28T01:30:36;17.20;;;8.20;;
72087;SDS011;59961;50.232;8.616;2024-02-28T01:33:01;17.42;;;7.60;;
72087;SDS011;59961;50.232;8.616;2024-02-28T01:35:26;18.60;;;7.75;;
72087;SDS011;59961;50.232;8.616;2024-02-28T01:37:51;14.18;;;7.28;;
72087;SDS011;59961;50.232;8.616;2024-02-28T01:40:16;15.45;;;6.93;;
72087;SDS011;59961;50.232;8.616;2024-02-28T01:42:42;16.37;;;6.97;;
72087;SDS011;59961;50.232;8.616;2024-02-28T01:45:07;16.50;;;7.43;;
72087;SDS011;59961;50.232;8.616;2024-02-28T01:47:34;15.23;;;7.72;;
72087;SDS011;59961;50.232;8.616;2024-02-28T01:50:00;19.70;;;7.70;;
72087;SDS011;59961;50.232;8.616;2024-02-28T01:52:25;16.97;;;7.77;;
72087;SDS011;59961;50.232;8.616;2024-02-28T01:54:50;17.00;;;7.80;;
72087;SDS011;59961;50.232;8.616;2024-02-28T01:57:15;16.40;;;7.28;;
72087;SDS011;59961;50.232;8.616;2024-02-28T01:59:41;17.97;;;7.60;;
72087;SDS011;59961;50.232;8.616;2024-02-28T02:02:07;19.48;;;8.63;;
72087;SDS011;59961;50.232;8.616;2024-02-28T02:04:32;18.03;;;7.37;;
72087;SDS011;59961;50.232;8.616;2024-02-28T02:06:57;19.67;;;7.72;;
72087;SDS011;59961;50.232;8.616;2024-02-28T02:09:24;18.10;;;7.82;;
72087;SDS011;59961;50.232;8.616;2024-02-28T02:11:50;17.30;;;7.30;;
72087;SDS011;59961;50.232;8.616;2024-02-28T02:14:15;17.57;;;8.13;;
72087;SDS011;59961;50.232;8.616;2024-02-28T02:16:40;18.47;;;8.27;;
72087;SDS011;59961;50.232;8.616;2024-02-28T02:19:06;17.20;;;7.90;;
72087;SDS011;59961;50.232;8.616;2024-02-28T02:21:41;17.80;;;7.85;;
72087;SDS011;59961;50.232;8.616;2024-02-28T02:24:08;17.90;;;7.97;;
72087;SDS011;59961;50.232;8.616;2024-02-28T02:26:33;18.63;;;7.77;;
72087;SDS011;59961;50.232;8.616;2024-02-28T02:28:58;16.80;;;7.47;;
72087;SDS011;59961;50.232;8.616;2024-02-28T02:31:24;18.13;;;8.37;;
72087;SDS011;59961;50.232;8.616;2024-02-28T02:33:49;21.03;;;8.60;;
72087;SDS011;59961;50.232;8.616;2024-02-28T02:36:14;19.97;;;9.00;;
72087;SDS011;59961;50.232;8.616;2024-02-28T02:38:39;21.07;;;8.70;;
72087;SDS011;59961;50.232;8.616;2024-02-28T02:41:04;19.63;;;8.77;;
72087;SDS011;59961;50.232;8.616;2024-02-28T02:43:29;19.73;;;8.52;;
72087;SDS011;59961;50.232;8.616;2024-02-28T02:45:55;19.80;;;8.68;;
72087;SDS011;59961;50.232;8.616;2024-02-28T02:48:20;19.37;;;9.03;;
72087;SDS011;59961;50.232;8.616;2024-02-28T02:50:45;19.70;;;8.82;;
72087;SDS011;59961;50.232;8.616;2024-02-28T02:53:10;20.33;;;8.10;;
72087;SDS011;59961;50.232;8.616;2024-02-28T02:55:35;18.27;;;8.20;;
72087;SDS011;59961;50.232;8.616;2024-02-28T02:58:01;19.30;;;7.90;;
72087;SDS011;59961;50.232;8.616;2024-02-28T03:00:27;19.90;;;8.32;;
72087;SDS011;59961;50.232;8.616;2024-02-28T03:02:52;17.20;;;7.67;;
72087;SDS011;59961;50.232;8.616;2024-02-28T03:05:18;19.65;;;7.78;;
72087;SDS011;59961;50.232;8.616;2024-02-28T03:07:43;20.42;;;7.97;;
72087;SDS011;59961;50.232;8.616;2024-02-28T03:10:08;18.98;;;7.95;;
72087;SDS011;59961;50.232;8.616;2024-02-28T03:12:35;20.48;;;8.35;;
72087;SDS011;59961;50.232;8.616;2024-02-28T03:15:00;20.40;;;8.50;;
72087;SDS011;59961;50.232;8.616;2024-02-28T03:17:25;20.27;;;8.70;;
72087;SDS011;59961;50.232;8.616;2024-02-28T03:19:50;22.40;;;8.73;;
72087;SDS011;59961;50.232;8.616;2024-02-28T03:22:16;20.90;;;8.03;;
72087;SDS011;59961;50.232;8.616;2024-02-28T03:24:41;18.07;;;8.23;;
72087;SDS011;59961;50.232;8.616;2024-02-28T03:27:06;19.63;;;8.43;;
72087;SDS011;59961;50.232;8.616;2024-02-28T03:29:31;19.80;;;8.23;;
72087;SDS011;59961;50.232;8.616;2024-02-28T03:31:57;17.97;;;7.80;;
72087;SDS011;59961;50.232;8.616;2024-02-28T03:34:23;22.27;;;7.90;;
72087;SDS011;59961;50.232;8.616;2024-02-28T03:36:48;23.67;;;9.70;;
72087;SDS011;59961;50.232;8.616;2024-02-28T03:39:13;17.35;;;8.65;;
72087;SDS011;59961;50.232;8.616;2024-02-28T03:41:38;22.60;;;8.57;;
72087;SDS011;59961;50.232;8.616;2024-02-28T03:44:04;20.27;;;8.40;;
72087;SDS011;59961;50.232;8.616;2024-02-28T03:46:29;19.07;;;7.77;;
72087;SDS011;59961;50.232;8.616;2024-02-28T03:48:54;22.67;;;8.90;;
72087;SDS011;59961;50.232;8.616;2024-02-28T03:51:19;22.13;;;8.50;;
72087;SDS011;59961;50.232;8.616;2024-02-28T03:53:45;18.83;;;8.13;;
72087;SDS011;59961;50.232;8.616;2024-02-28T03:56:10;21.40;;;9.15;;
72087;SDS011;59961;50.232;8.616;2024-02-28T03:58:36;17.60;;;7.80;;
72087;SDS011;59961;50.232;8.616;2024-02-28T04:01:01;17.67;;;7.17;;
72087;SDS011;59961;50.232;8.616;2024-02-28T04:03:26;20.47;;;8.80;;
72087;SDS011;59961;50.232;8.616;2024-02-28T04:05:51;21.50;;;8.90;;
72087;SDS011;59961;50.232;8.616;2024-02-28T04:08:17;20.80;;;8.85;;
72087;SDS011;59961;50.232;8.616;2024-02-28T04:10:42;21.60;;;8.55;;
72087;SDS011;59961;50.232;8.616;2024-02-28T04:13:07;18.67;;;8.07;;
72087;SDS011;59961;50.232;8.616;2024-02-28T04:15:32;18.58;;;8.00;;
72087;SDS011;59961;50.232;8.616;2024-02-28T04:17:57;15.67;;;7.93;;
72087;SDS011;59961;50.232;8.616;2024-02-28T04:20:22;20.30;;;8.05;;
72087;SDS011;59961;50.232;8.616;2024-02-28T04:22:47;22.60;;;9.23;;
72087;SDS011;59961;50.232;8.616;2024-02-28T04:25:13;22.25;;;9.80;;
72087;SDS011;59961;50.232;8.616;2024-02-28T04:27:38;23.70;;;9.13;;
72087;SDS011;59961;50.232;8.616;2024-02-28T04:30:04;19.67;;;8.17;;
72087;SDS011;59961;50.232;8.616;2024-02-28T04:32:29;21.23;;;8.80;;
72087;SDS011;59961;50.232;8.616;2024-02-28T04:34:54;22.63;;;9.23;;
72087;SDS011;59961;50.232;8.616;2024-02-28T04:37:20;20.60;;;8.97;;
72087;SDS011;59961;50.232;8.616;2024-02-28T04:39:45;22.53;;;9.63;;
72087;SDS011;59961;50.232;8.616;2024-02-28T04:42:10;23.30;;;9.30;;
72087;SDS011;59961;50.232;8.616;2024-02-28T04:44:35;22.95;;;9.10;;
72087;SDS011;59961;50.232;8.616;2024-02-28T04:47:01;23.30;;;9.50;;
72087;SDS011;59961;50.232;8.616;2024-02-28T04:49:26;22.73;;;9.07;;
72087;SDS011;59961;50.232;8.616;2024-02-28T04:51:51;20.98;;;9.15;;
72087;SDS011;59961;50.232;8.616;2024-02-28T04:54:16;21.13;;;9.48;;
72087;SDS011;59961;50.232;8.616;2024-02-28T04:56:42;20.83;;;9.23;;
72087;SDS011;59961;50.232;8.616;2024-02-28T04:59:07;22.07;;;8.90;;
72087;SDS011;59961;50.232;8.616;2024-02-28T05:01:33;21.60;;;9.70;;
72087;SDS011;59961;50.232;8.616;2024-02-28T05:03:59;20.52;;;9.02;;
72087;SDS011;59961;50.232;8.616;2024-02-28T05:06:24;22.88;;;9.68;;
72087;SDS011;59961;50.232;8.616;2024-02-28T05:08:49;23.70;;;9.70;;
72087;SDS011;59961;50.232;8.616;2024-02-28T05:11:14;22.03;;;9.93;;
72087;SDS011;59961;50.232;8.616;2024-02-28T05:13:40;22.73;;;8.70;;
72087;SDS011;59961;50.232;8.616;2024-02-28T05:16:11;23.37;;;9.73;;
72087;SDS011;59961;50.232;8.616;2024-02-28T05:18:36;19.98;;;8.50;;
72087;SDS011;59961;50.232;8.616;2024-02-28T05:21:01;20.65;;;9.15;;
72087;SDS011;59961;50.232;8.616;2024-02-28T05:23:26;21.73;;;10.00;;
72087;SDS011;59961;50.232;8.616;2024-02-28T05:25:52;21.45;;;9.45;;
72087;SDS011;59961;50.232;8.616;2024-02-28T05:28:17;25.05;;;9.75;;
72087;SDS011;59961;50.232;8.616;2024-02-28T05:30:42;21.90;;;9.40;;
72087;SDS011;59961;50.232;8.616;2024-02-28T05:33:07;19.70;;;8.45;;
72087;SDS011;59961;50.232;8.616;2024-02-28T05:35:33;26.33;;;8.80;;
72087;SDS011;59961;50.232;8.616;2024-02-28T05:37:58;21.02;;;8.63;;
72087;SDS011;59961;50.232;8.616;2024-02-28T05:40:23;20.80;;;9.00;;
72087;SDS011;59961;50.232;8.616;2024-02-28T05:42:49;24.93;;;9.17;;
72087;SDS011;59961;50.232;8.616;2024-02-28T05:45:14;19.13;;;8.23;;
72087;SDS011;59961;50.232;8.616;2024-02-28T05:47:39;20.37;;;8.57;;
72087;SDS011;59961;50.232;8.616;2024-02-28T05:50:04;22.83;;;9.17;;
72087;SDS011;59961;50.232;8.616;2024-02-28T05:52:30;20.83;;;9.05;;
72087;SDS011;59961;50.232;8.616;2024-02-28T05:54:55;23.08;;;8.93;;
72087;SDS011;59961;50.232;8.616;2024-02-28T05:57:20;18.92;;;8.05;;
72087;SDS011;59961;50.232;8.616;2024-02-28T05:59:45;18.98;;;7.90;;
72087;SDS011;59961;50.232;8.616;2024-02-28T06:02:10;20.77;;;8.20;;
72087;SDS011;59961;50.232;8.616;2024-02-28T06:04:36;18.57;;;7.33;;
72087;SDS011;59961;50.232;8.616;2024-02-28T06:07:01;20.25;;;7.25;;
72087;SDS011;59961;50.232;8.616;2024-02-28T06:09:26;19.63;;;8.57;;
72087;SDS011;59961;50.232;8.616;2024-02-28T06:11:54;16.25;;;7.22;;
72087;SDS011;59961;50.232;8.616;2024-02-28T06:14:19;15.60;;;7.07;;
72087;SDS011;59961;50.232;8.616;2024-02-28T06:16:47;17.90;;;7.55;;
72087;SDS011;59961;50.232;8.616;2024-02-28T06:19:13;17.35;;;7.50;;
72087;SDS011;59961;50.232;8.616;2024-02-28T06:21:38;16.67;;;7.20;;
72087;SDS011;59961;50.232;8.616;2024-02-28T06:24:03;15.05;;;6.85;;
72087;SDS011;59961;50.232;8.616;2024-02-28T06:26:29;15.90;;;7.30;;
72087;SDS011;59961;50.232;8.616;2024-02-28T06:28:56;15.80;;;8.43;;
72087;SDS011;59961;50.232;8.616;2024-02-28T06:31:26;17.17;;;7.30;;
72087;SDS011;59961;50.232;8.616;2024-02-28T06:33:51;18.57;;;7.87;;
72087;SDS011;59961;50.232;8.616;2024-02-28T06:36:16;17.02;;;6.82;;
72087;SDS011;59961;50.232;8.616;2024-02-28T06:38:41;16.90;;;7.63;;
72087;SDS011;59961;50.232;8.616;2024-02-28T06:41:06;16.20;;;6.60;;
72087;SDS011;59961;50.232;8.616;2024-02-28T06:43:35;14.80;;;6.27;;
72087;SDS011;59961;50.232;8.616;2024-02-28T06:46:01;15.37;;;6.80;;
72087;SDS011;59961;50.232;8.616;2024-02-28T06:48:26;19.40;;;7.13;;
72087;SDS011;59961;50.232;8.616;2024-02-28T06:50:52;17.67;;;7.13;;
72087;SDS011;59961;50.232;8.616;2024-02-28T06:53:17;16.57;;;7.00;;
72087;SDS011;59961;50.232;8.616;2024-02-28T06:55:42;16.30;;;7.20;;
72087;SDS011;59961;50.232;8.616;2024-02-28T06:58:07;15.87;;;6.40;;
72087;SDS011;59961;50.232;8.616;2024-02-28T07:00:32;16.75;;;7.00;;
72087;SDS011;59961;50.232;8.616;2024-02-28T07:02:57;15.53;;;6.83;;
72087;SDS011;59961;50.232;8.616;2024-02-28T07:05:23;16.02;;;6.80;;
72087;SDS011;59961;50.232;8.616;2024-02-28T07:07:49;16.23;;;6.53;;
72087;SDS011;59961;50.232;8.616;2024-02-28T07:10:14;17.47;;;7.00;;
72087;SDS011;59961;50.232;8.616;2024-02-28T07:12:39;16.77;;;6.83;;
72087;SDS011;59961;50.232;8.616;2024-02-28T07:15:04;18.67;;;7.53;;
72087;SDS011;59961;50.232;8.616;2024-02-28T07:17:30;14.23;;;6.63;;
72087;SDS011;59961;50.232;8.616;2024-02-28T07:19:55;14.27;;;6.68;;
72087;SDS011;59961;50.232;8.616;2024-02-28T07:22:20;15.60;;;6.83;;
72087;SDS011;59961;50.232;8.616;2024-02-28T07:24:46;20.73;;;8.48;;
72087;SDS011;59961;50.232;8.616;2024-02-28T07:27:11;17.15;;;7.95;;
72087;SDS011;59961;50.232;8.616;2024-02-28T07:29:36;16.87;;;7.60;;
72087;SDS011;59961;50.232;8.616;2024-02-28T07:32:02;21.38;;;8.25;;
72087;SDS011;59961;50.232;8.616;2024-02-28T07:34:27;20.03;;;8.87;;
72087;SDS011;59961;50.232;8.616;2024-02-28T07:36:52;25.88;;;10.38;;
72087;SDS011;59961;50.232;8.616;2024-02-28T07:39:18;22.03;;;8.87;;
72087;SDS011;59961;50.232;8.616;2024-02-28T07:41:43;24.40;;;9.88;;
72087;SDS011;59961;50.232;8.616;2024-02-28T07:44:08;21.40;;;9.50;;
72087;SDS011;59961;50.232;8.616;2024-02-28T07:46:34;23.97;;;9.90;;
72087;SDS011;59961;50.232;8.616;2024-02-28T07:48:59;25.87;;;11.13;;
72087;SDS011;59961;50.232;8.616;2024-02-28T07:51:25;22.23;;;9.98;;
72087;SDS011;59961;50.232;8.616;2024-02-28T07:53:50;24.92;;;10.63;;
72087;SDS011;59961;50.232;8.616;2024-02-28T07:56:16;22.03;;;9.83;;
72087;SDS011;59961;50.232;8.616;2024-02-28T07:58:42;22.40;;;9.38;;
72087;SDS011;59961;50.232;8.616;2024-02-28T08:01:07;18.57;;;9.03;;
72087;SDS011;59961;50.232;8.616;2024-02-28T08:03:33;20.85;;;9.70;;
72087;SDS011;59961;50.232;8.616;2024-02-28T08:05:58;22.50;;;9.90;;
72087;SDS011;59961;50.232;8.616;2024-02-28T08:08:23;20.37;;;9.07;;
72087;SDS011;59961;50.232;8.616;2024-02-28T08:10:48;23.90;;;9.00;;
72087;SDS011;59961;50.232;8.616;2024-02-28T08:13:14;18.97;;;7.83;;
72087;SDS011;59961;50.232;8.616;2024-02-28T08:15:39;18.60;;;8.20;;
72087;SDS011;59961;50.232;8.616;2024-02-28T08:18:04;19.07;;;7.97;;
72087;SDS011;59961;50.232;8.616;2024-02-28T08:20:29;19.97;;;8.57;;
72087;SDS011;59961;50.232;8.616;2024-02-28T08:22:54;18.43;;;8.20;;
72087;SDS011;59961;50.232;8.616;2024-02-28T08:25:22;18.48;;;8.30;;
72087;SDS011;59961;50.232;8.616;2024-02-28T08:27:47;20.58;;;8.43;;
72087;SDS011;59961;50.232;8.616;2024-02-28T08:30:12;17.90;;;8.63;;
72087;SDS011;59961;50.232;8.616;2024-02-28T08:32:37;19.40;;;8.63;;
72087;SDS011;59961;50.232;8.616;2024-02-28T08:35:03;20.30;;;9.00;;
72087;SDS011;59961;50.232;8.616;2024-02-28T08:37:28;20.30;;;9.17;;
72087;SDS011;59961;50.232;8.616;2024-02-28T08:39:54;19.37;;;8.80;;
72087;SDS011;59961;50.232;8.616;2024-02-28T08:42:22;19.83;;;9.10;;
72087;SDS011;59961;50.232;8.616;2024-02-28T08:44:47;19.80;;;9.15;;
72087;SDS011;59961;50.232;8.616;2024-02-28T08:47:13;20.93;;;8.33;;
72087;SDS011;59961;50.232;8.616;2024-02-28T08:49:38;21.13;;;8.63;;
72087;SDS011;59961;50.232;8.616;2024-02-28T08:52:04;21.23;;;9.18;;
72087;SDS011;59961;50.232;8.616;2024-02-28T08:54:29;20.20;;;9.80;;
72087;SDS011;59961;50.232;8.616;2024-02-28T08:56:54;20.77;;;9.23;;
72087;SDS011;59961;50.232;8.616;2024-02-28T08:59:20;20.00;;;8.70;;
72087;SDS011;59961;50.232;8.616;2024-02-28T09:01:46;20.60;;;8.10;;
72087;SDS011;59961;50.232;8.616;2024-02-28T09:04:12;22.27;;;9.07;;
72087;SDS011;59961;50.232;8.616;2024-02-28T09:06:37;19.20;;;7.93;;
72087;SDS011;59961;50.232;8.616;2024-02-28T09:09:02;20.23;;;8.37;;
72087;SDS011;59961;50.232;8.616;2024-02-28T09:11:28;18.35;;;8.77;;
72087;SDS011;59961;50.232;8.616;2024-02-28T09:13:54;16.70;;;7.00;;
72087;SDS011;59961;50.232;8.616;2024-02-28T09:16:19;19.23;;;8.02;;
72087;SDS011;59961;50.232;8.616;2024-02-28T09:18:45;19.13;;;7.60;;
72087;SDS011;59961;50.232;8.616;2024-02-28T09:21:10;19.58;;;8.68;;
72087;SDS011;59961;50.232;8.616;2024-02-28T09:23:35;22.23;;;9.10;;
72087;SDS011;59961;50.232;8.616;2024-02-28T09:26:03;18.40;;;7.53;;
72087;SDS011;59961;50.232;8.616;2024-02-28T09:28:29;16.70;;;7.33;;
72087;SDS011;59961;50.232;8.616;2024-02-28T09:30:54;19.30;;;8.23;;
72087;SDS011;59961;50.232;8.616;2024-02-28T09:33:19;19.20;;;7.60;;
72087;SDS011;59961;50.232;8.616;2024-02-28T09:35:44;17.73;;;8.10;;
72087;SDS011;59961;50.232;8.616;2024-02-28T09:38:10;18.10;;;7.60;;
72087;SDS011;59961;50.232;8.616;2024-02-28T09:40:35;17.63;;;8.57;;
72087;SDS011;59961;50.232;8.616;2024-02-28T09:43:01;18.20;;;8.05;;
72087;SDS011;59961;50.232;8.616;2024-02-28T09:45:27;16.85;;;8.10;;
72087;SDS011;59961;50.232;8.616;2024-02-28T09:47:55;19.15;;;8.57;;
72087;SDS011;59961;50.232;8.616;2024-02-28T09:50:20;17.53;;;7.53;;
72087;SDS011;59961;50.232;8.616;2024-02-28T09:52:46;17.07;;;8.17;;
72087;SDS011;59961;50.232;8.616;2024-02-28T09:55:11;19.87;;;8.37;;
72087;SDS011;59961;50.232;8.616;2024-02-28T09:57:37;16.70;;;7.23;;
72087;SDS011;59961;50.232;8.616;2024-02-28T10:00:02;20.05;;;8.55;;
72087;SDS011;59961;50.232;8.616;2024-02-28T10:02:28;18.20;;;8.27;;
72087;SDS011;59961;50.232;8.616;2024-02-28T10:04:53;18.63;;;7.97;;
72087;SDS011;59961;50.232;8.616;2024-02-28T10:07:20;19.13;;;7.43;;
72087;SDS011;59961;50.232;8.616;2024-02-28T10:09:46;18.83;;;7.68;;
72087;SDS011;59961;50.232;8.616;2024-02-28T10:12:11;20.10;;;8.30;;
72087;SDS011;59961;50.232;8.616;2024-02-28T10:14:37;21.20;;;8.70;;
72087;SDS011;59961;50.232;8.616;2024-02-28T10:17:03;19.95;;;7.82;;
72087;SDS011;59961;50.232;8.616;2024-02-28T10:19:28;19.27;;;8.20;;
72087;SDS011;59961;50.232;8.616;2024-02-28T10:21:53;22.37;;;8.43;;
72087;SDS011;59961;50.232;8.616;2024-02-28T10:24:18;19.92;;;8.20;;
72087;SDS011;59961;50.232;8.616;2024-02-28T10:26:46;19.85;;;8.60;;
72087;SDS011;59961;50.232;8.616;2024-02-28T10:29:24;19.17;;;7.70;;
72087;SDS011;59961;50.232;8.616;2024-02-28T10:31:50;19.48;;;8.40;;
72087;SDS011;59961;50.232;8.616;2024-02-28T10:34:18;19.95;;;7.68;;
72087;SDS011;59961;50.232;8.616;2024-02-28T10:36:43;22.17;;;8.30;;
72087;SDS011;59961;50.232;8.616;2024-02-28T10:39:09;19.93;;;8.40;;
72087;SDS011;59961;50.232;8.616;2024-02-28T10:41:35;18.15;;;7.68;;
72087;SDS011;59961;50.232;8.616;2024-02-28T10:44:02;21.07;;;7.93;;
72087;SDS011;59961;50.232;8.616;2024-02-28T10:46:27;22.07;;;9.10;;
72087;SDS011;59961;50.232;8.616;2024-02-28T10:48:53;22.42;;;8.57;;
72087;SDS011;59961;50.232;8.616;2024-02-28T10:51:20;22.92;;;8.73;;
72087;SDS011;59961;50.232;8.616;2024-02-28T10:53:48;21.30;;;8.67;;
72087;SDS011;59961;50.232;8.616;2024-02-28T10:56:14;24.25;;;8.73;;
72087;SDS011;59961;50.232;8.616;2024-02-28T10:58:48;22.50;;;9.05;;
72087;SDS011;59961;50.232;8.616;2024-02-28T11:01:15;21.27;;;8.30;;
72087;SDS011;59961;50.232;8.616;2024-02-28T11:03:40;22.60;;;9.47;;
72087;SDS011;59961;50.232;8.616;2024-02-28T11:06:15;22.87;;;9.80;;
72087;SDS011;59961;50.232;8.616;2024-02-28T11:08:45;22.85;;;8.52;;
72087;SDS011;59961;50.232;8.616;2024-02-28T11:11:13;22.47;;;8.60;;
72087;SDS011;59961;50.232;8.616;2024-02-28T11:13:38;21.85;;;8.68;;
72087;SDS011;59961;50.232;8.616;2024-02-28T11:16:09;20.05;;;8.63;;
72087;SDS011;59961;50.232;8.616;2024-02-28T11:18:35;20.10;;;8.13;;
72087;SDS011;59961;50.232;8.616;2024-02-28T11:21:00;21.97;;;8.37;;
72087;SDS011;59961;50.232;8.616;2024-02-28T11:23:26;23.67;;;8.63;;
72087;SDS011;59961;50.232;8.616;2024-02-28T11:26:00;21.45;;;9.05;;
72087;SDS011;59961;50.232;8.616;2024-02-28T11:28:25;20.07;;;8.10;;
72087;SDS011;59961;50.232;8.616;2024-02-28T11:30:50;22.27;;;9.00;;
72087;SDS011;59961;50.232;8.616;2024-02-28T11:33:15;19.55;;;7.82;;
72087;SDS011;59961;50.232;8.616;2024-02-28T11:35:40;20.33;;;8.80;;
72087;SDS011;59961;50.232;8.616;2024-02-28T11:38:06;21.50;;;9.13;;
72087;SDS011;59961;50.232;8.616;2024-02-28T11:40:31;23.30;;;10.10;;
72087;SDS011;59961;50.232;8.616;2024-02-28T11:42:56;19.60;;;7.90;;
72087;SDS011;59961;50.232;8.616;2024-02-28T11:45:23;21.65;;;9.38;;
72087;SDS011;59961;50.232;8.616;2024-02-28T11:47:48;22.93;;;8.60;;
72087;SDS011;59961;50.232;8.616;2024-02-28T11:50:13;19.60;;;8.80;;
72087;SDS011;59961;50.232;8.616;2024-02-28T11:52:39;20.40;;;8.20;;
72087;SDS011;59961;50.232;8.616;2024-02-28T11:55:05;20.97;;;9.10;;
72087;SDS011;59961;50.232;8.616;2024-02-28T11:57:30;20.60;;;8.47;;
72087;SDS011;59961;50.232;8.616;2024-02-28T12:00:01;21.85;;;9.50;;
72087;SDS011;59961;50.232;8.616;2024-02-28T12:02:27;23.27;;;8.88;;
72087;SDS011;59961;50.232;8.616;2024-02-28T12:04:55;21.30;;;9.05;;
72087;SDS011;59961;50.232;8.616;2024-02-28T12:07:20;24.23;;;10.03;;
72087;SDS011;59961;50.232;8.616;2024-02-28T12:09:46;20.45;;;8.85;;
72087;SDS011;59961;50.232;8.616;2024-02-28T12:12:13;21.30;;;8.80;;
72087;SDS011;59961;50.232;8.616;2024-02-28T12:14:38;19.55;;;8.63;;
72087;SDS011;59961;50.232;8.616;2024-02-28T12:17:04;20.97;;;9.23;;
72087;SDS011;59961;50.232;8.616;2024-02-28T12:19:30;22.00;;;9.02;;
72087;SDS011;59961;50.232;8.616;2024-02-28T12:21:56;20.95;;;8.68;;
72087;SDS011;59961;50.232;8.616;2024-02-28T12:24:21;22.90;;;9.07;;
72087;SDS011;59961;50.232;8.616;2024-02-28T12:26:46;20.87;;;8.40;;
72087;SDS011;59961;50.232;8.616;2024-02-28T12:29:11;21.67;;;8.83;;
72087;SDS011;59961;50.232;8.616;2024-02-28T12:31:37;23.07;;;9.47;;
72087;SDS011;59961;50.232;8.616;2024-02-28T12:34:02;19.93;;;8.87;;
72087;SDS011;59961;50.232;8.616;2024-02-28T12:36:29;20.43;;;8.27;;
72087;SDS011;59961;50.232;8.616;2024-02-28T12:38:54;21.50;;;9.60;;
72087;SDS011;59961;50.232;8.616;2024-02-28T12:41:19;23.53;;;9.10;;
72087;SDS011;59961;50.232;8.616;2024-02-28T12:43:44;19.10;;;8.70;;
72087;SDS011;59961;50.232;8.616;2024-02-28T12:46:09;23.13;;;8.93;;
72087;SDS011;59961;50.232;8.616;2024-02-28T12:48:38;23.47;;;9.00;;
72087;SDS011;59961;50.232;8.616;2024-02-28T12:51:03;23.50;;;9.03;;
72087;SDS011;59961;50.232;8.616;2024-02-28T12:53:30;22.63;;;9.85;;
72087;SDS011;59961;50.232;8.616;2024-02-28T12:55:55;22.00;;;9.33;;
72087;SDS011;59961;50.232;8.616;2024-02-28T12:58:20;21.27;;;8.70;;
72087;SDS011;59961;50.232;8.616;2024-02-28T13:00:45;21.38;;;9.35;;
72087;SDS011;59961;50.232;8.616;2024-02-28T13:03:11;23.70;;;9.53;;
72087;SDS011;59961;50.232;8.616;2024-02-28T13:05:36;22.10;;;9.17;;
72087;SDS011;59961;50.232;8.616;2024-02-28T13:08:02;21.63;;;9.00;;
72087;SDS011;59961;50.232;8.616;2024-02-28T13:10:28;21.67;;;8.70;;
72087;SDS011;59961;50.232;8.616;2024-02-28T13:12:54;20.43;;;8.87;;
72087;SDS011;59961;50.232;8.616;2024-02-28T13:15:19;22.27;;;9.23;;
72087;SDS011;59961;50.232;8.616;2024-02-28T13:17:44;20.75;;;8.68;;
72087;SDS011;59961;50.232;8.616;2024-02-28T13:20:11;22.20;;;9.32;;
72087;SDS011;59961;50.232;8.616;2024-02-28T13:22:37;21.13;;;9.43;;
72087;SDS011;59961;50.232;8.616;2024-02-28T13:25:02;21.88;;;9.25;;
72087;SDS011;59961;50.232;8.616;2024-02-28T13:27:27;20.77;;;9.50;;
72087;SDS011;59961;50.232;8.616;2024-02-28T13:29:52;21.92;;;9.38;;
72087;SDS011;59961;50.232;8.616;2024-02-28T13:32:17;21.80;;;9.32;;
72087;SDS011;59961;50.232;8.616;2024-02-28T13:34:42;19.60;;;8.55;;
72087;SDS011;59961;50.232;8.616;2024-02-28T13:37:07;23.40;;;9.30;;
72087;SDS011;59961;50.232;8.616;2024-02-28T13:39:33;21.30;;;9.17;;
72087;SDS011;59961;50.232;8.616;2024-02-28T13:41:59;20.97;;;8.83;;
72087;SDS011;59961;50.232;8.616;2024-02-28T13:44:25;18.77;;;8.85;;
72087;SDS011;59961;50.232;8.616;2024-02-28T13:46:50;21.73;;;9.07;;
72087;SDS011;59961;50.232;8.616;2024-02-28T13:49:16;19.50;;;9.60;;
72087;SDS011;59961;50.232;8.616;2024-02-28T13:51:42;21.30;;;8.88;;
72087;SDS011;59961;50.232;8.616;2024-02-28T13:54:07;21.07;;;9.20;;
72087;SDS011;59961;50.232;8.616;2024-02-28T13:56:32;21.70;;;8.85;;
72087;SDS011;59961;50.232;8.616;2024-02-28T13:58:57;21.00;;;8.55;;
72087;SDS011;59961;50.232;8.616;2024-02-28T14:01:22;20.60;;;8.10;;
72087;SDS011;59961;50.232;8.616;2024-02-28T14:03:47;19.83;;;8.20;;
72087;SDS011;59961;50.232;8.616;2024-02-28T14:06:13;19.13;;;8.63;;
72087;SDS011;59961;50.232;8.616;2024-02-28T14:08:39;19.05;;;8.48;;
72087;SDS011;59961;50.232;8.616;2024-02-28T14:11:04;17.25;;;7.28;;
72087;SDS011;59961;50.232;8.616;2024-02-28T14:13:29;22.45;;;8.73;;
72087;SDS011;59961;50.232;8.616;2024-02-28T14:15:55;19.10;;;8.37;;
72087;SDS011;59961;50.232;8.616;2024-02-28T14:18:20;17.87;;;8.07;;
72087;SDS011;59961;50.232;8.616;2024-02-28T14:20:45;19.57;;;8.73;;
72087;SDS011;59961;50.232;8.616;2024-02-28T14:23:11;17.53;;;8.00;;